Time;durP1;ratioP1;P1;durP2;ratioP2;P2;SDS_P1;SDS_P2;PMS_P1;PMS_P2;Temp;Humidity;BMP_temperature;BMP_pressure;BME280_temperature;BME280_humidity;BME280_pressure;Samples;Min_cycle;Max_cycle;Signal;HPM_P1;HPM_P2
2023/01/03 00:04:09;;;;;;;168.60;23.83;;;;;;;2.53;100.00;101852.49;1328385;106;21735;-82
2023/01/03 01:34:42;;;;;;;;;;;;;;;;;;;;;
2023/01/03 01:37:51;;;;;;;;;;;;;;;;;;;;;
2023/01/03 02:03:54;;;;;;;;;;;;;;;;;;;;;
2023/01/03 02:52:39;;;;;;;;;;;;;;;;;;;;;
2023/01/03 04:39:57;;;;;;;;;;;;;;;;;;;;;
2023/01/03 05:06:02;;;;;;;65.90;18.95;;;;;;;5.40;100.00;101600.34;1283831;111;21294;-82
2023/01/03 05:08:32;;;;;;;91.40;18.40;;;;;;;5.41;100.00;101604.69;1251563;111;21820;-83
2023/01/03 05:10:58;;;;;;;82.53;17.73;;;;;;;5.43;100.00;101599.13;1239719;114;21791;-83
2023/01/03 05:13:25;;;;;;;70.05;18.15;;;;;;;5.45;100.00;101595.75;1227850;115;21997;-83
2023/01/03 05:15:51;;;;;;;69.58;17.67;;;;;;;5.47;100.00;101603.03;1227586;116;21190;-83
2023/01/03 05:18:18;;;;;;;58.28;17.62;;;;;;;5.48;100.00;101598.53;1229994;116;21200;-83
2023/01/03 05:26:17;;;;;;;58.75;16.93;;;;;;;5.50;100.00;101594.64;1232145;114;21277;-83
2023/01/03 05:28:53;;;;;;;66.55;16.27;;;;;;;5.52;100.00;101597.91;1285490;110;21166;-83
2023/01/03 05:31:19;;;;;;;80.85;17.80;;;;;;;5.54;100.00;101597.73;1303310;107;21275;-83
2023/01/03 05:33:48;;;;;;;77.00;17.60;;;;;;;5.55;100.00;101602.86;1322933;107;21198;-83
2023/01/03 05:36:14;;;;;;;59.35;17.10;;;;;;;5.54;100.00;101607.91;1327139;102;21186;-83
2023/01/03 05:38:41;;;;;;;71.70;17.32;;;;;;;5.57;100.00;101605.34;1394566;102;21199;-83
2023/01/03 05:41:07;;;;;;;65.20;17.10;;;;;;;5.60;100.00;101596.91;1385259;99;21203;-83
2023/01/03 05:43:35;;;;;;;63.78;18.05;;;;;;;5.61;100.00;101600.71;1425869;99;21100;-84
2023/01/03 05:46:03;;;;;;;67.12;16.82;;;;;;;5.64;100.00;101594.95;1408035;101;21678;-83
2023/01/03 05:48:29;;;;;;;61.50;17.27;;;;;;;5.67;100.00;101592.39;1371631;102;21128;-83
2023/01/03 05:50:57;;;;;;;53.83;17.55;;;;;;;5.67;100.00;101587.05;1369469;104;21175;-83
2023/01/03 05:53:24;;;;;;;57.17;17.42;;;;;;;5.67;100.00;101577.69;1388730;103;21153;-83
2023/01/03 05:55:53;;;;;;;57.58;19.23;;;;;;;5.66;100.00;101583.55;1389888;103;21176;-83
2023/01/03 05:58:19;;;;;;;56.55;18.98;;;;;;;5.68;100.00;101580.17;1386831;103;21197;-83
2023/01/03 06:00:46;;;;;;;59.27;19.57;;;;;;;5.75;100.00;101588.72;1384098;103;21133;-83
2023/01/03 06:03:14;;;;;;;61.53;20.65;;;;;;;5.78;100.00;101581.11;1384209;103;21205;-83
2023/01/03 06:05:40;;;;;;;62.62;20.50;;;;;;;5.79;100.00;101580.59;1413163;101;21167;-83
2023/01/03 06:08:06;;;;;;;66.00;21.90;;;;;;;5.82;100.00;101582.33;1469186;94;21199;-84
2023/01/03 06:10:32;;;;;;;59.08;21.90;;;;;;;5.87;100.00;101574.53;1500689;94;21081;-83
2023/01/03 06:12:59;;;;;;;68.00;21.57;;;;;;;5.92;100.00;101572.59;1503449;94;21723;-83
2023/01/03 06:15:28;;;;;;;58.55;21.70;;;;;;;5.94;100.00;101567.05;1485548;94;21148;-83
2023/01/03 06:17:56;;;;;;;63.08;22.32;;;;;;;5.96;100.00;101567.16;1503744;94;21081;-84
2023/01/03 06:20:23;;;;;;;58.35;21.68;;;;;;;5.99;100.00;101565.94;1503658;94;21165;-83
2023/01/03 06:22:49;;;;;;;61.18;21.15;;;;;;;6.02;100.00;101558.31;1503879;94;21087;-84
2023/01/03 06:25:16;;;;;;;62.58;22.32;;;;;;;6.07;100.00;101565.22;1485163;94;21101;-84
2023/01/03 06:27:42;;;;;;;54.30;20.82;;;;;;;6.14;100.00;101567.36;1485524;95;21172;-84
2023/01/03 06:30:10;;;;;;;56.90;21.12;;;;;;;6.21;100.00;101564.70;1503947;94;21165;-84
2023/01/03 06:32:36;;;;;;;62.13;21.93;;;;;;;6.26;100.00;101567.56;1510162;92;21637;-84
2023/01/03 06:35:05;;;;;;;58.63;21.48;;;;;;;6.30;100.00;101560.78;1556509;90;21164;-83
2023/01/03 06:37:31;;;;;;;61.48;23.38;;;;;;;6.34;100.00;101559.33;1556058;90;21106;-84
2023/01/03 06:39:57;;;;;;;59.15;21.27;;;;;;;6.39;100.00;101561.91;1555988;90;21777;-84
2023/01/03 06:42:39;;;;;;;56.75;20.88;;;;;;;6.45;100.00;101561.08;1571289;88;21121;-84
2023/01/03 06:53:34;;;;;;;58.13;22.45;;;;;;;6.62;100.00;101558.27;1740815;81;21010;-94
2023/01/03 06:56:00;;;;;;;58.98;21.60;;;;;;;6.79;100.00;101554.11;1709386;83;21035;-93
2023/01/03 06:58:27;;;;;;;53.78;22.30;;;;;;;6.96;100.00;101546.92;1709865;83;21606;-92
2023/01/03 07:00:55;;;;;;;47.03;20.52;;;;;;;7.35;100.00;101551.27;1709465;83;21019;-94
2023/01/03 07:03:22;;;;;;;53.17;21.12;;;;;;;8.08;100.00;101531.16;1710308;83;21121;-93
2023/01/03 07:05:49;;;;;;;46.23;20.10;;;;;;;9.14;100.00;101542.13;1710098;83;21184;-93
2023/01/03 07:08:15;;;;;;;38.10;17.48;;;;;;;10.41;100.00;101534.28;1710230;83;21027;-93
2023/01/03 07:10:42;;;;;;;33.85;16.10;;;;;;;11.86;100.00;101519.31;1686258;83;21416;-93
2023/01/03 07:15:53;;;;;;;29.82;15.50;;;;;;;14.26;100.00;101519.33;1709642;83;21107;-93
2023/01/03 07:18:19;;;;;;;27.87;14.93;;;;;;;15.40;100.00;101507.32;1709859;83;21110;-93
2023/01/03 07:20:45;;;;;;;32.67;15.85;;;;;;;16.26;100.00;101500.23;1709982;83;21211;-93
2023/01/03 07:23:13;;;;;;;29.80;15.38;;;;;;;17.02;100.00;101492.36;1686149;83;21035;-93
2023/01/03 07:25:40;;;;;;;29.20;14.73;;;;;;;17.82;100.00;101498.08;1709647;83;21399;-92
2023/01/03 07:28:10;;;;;;;30.12;14.30;;;;;;;18.61;100.00;101495.33;1709640;83;21051;-93
2023/01/03 07:30:40;;;;;;;30.60;15.40;;;;;;;18.96;100.00;101500.67;1655285;86;21856;-91
2023/01/03 07:33:08;;;;;;;24.35;12.60;;;;;;;19.75;100.00;101495.40;1655146;86;20957;-92
2023/01/03 07:35:35;;;;;;;23.75;14.23;;;;;;;20.31;100.00;101488.90;1655118;86;21116;-93
2023/01/03 07:38:03;;;;;;;23.45;14.15;;;;;;;20.78;100.00;101493.73;1655502;86;21076;-91
2023/01/03 07:40:30;;;;;;;25.08;14.00;;;;;;;21.34;100.00;101484.80;1632797;86;21695;-93
2023/01/03 07:45:44;;;;;;;26.42;13.95;;;;;;;22.46;95.98;101476.98;1655310;86;20961;-92
2023/01/03 07:48:11;;;;;;;22.77;13.45;;;;;;;22.83;92.14;101469.33;1648224;86;21040;-90
2023/01/03 07:50:38;;;;;;;24.98;13.18;;;;;;;23.77;88.55;101465.52;1647999;87;21110;-92
2023/01/03 07:53:06;;;;;;;20.48;13.05;;;;;;;24.32;73.34;101455.00;1625992;87;21190;-91
2023/01/03 07:55:35;;;;;;;21.17;12.53;;;;;;;24.40;70.72;101461.61;1573971;91;21182;-92
2023/01/03 07:58:01;;;;;;;19.82;12.78;;;;;;;24.59;69.07;101457.06;1612842;89;21043;-91
2023/01/03 08:00:27;;;;;;;19.42;12.58;;;;;;;25.13;64.07;101460.76;1591405;89;21634;-92
2023/01/03 08:02:55;;;;;;;19.73;12.50;;;;;;;25.34;61.19;101456.59;1613159;88;21118;-93
2023/01/03 08:05:22;;;;;;;23.98;12.40;;;;;;;25.33;58.75;101450.05;1612710;88;21165;-91
2023/01/03 08:07:50;;;;;;;19.60;12.00;;;;;;;25.83;58.17;101443.54;1554141;91;21091;-92
2023/01/03 08:13:16;;;;;;;21.90;12.70;;;;;;;25.91;52.99;101441.22;1612588;89;21106;-90
2023/01/03 08:15:48;;;;;;;21.73;11.83;;;;;;;25.75;51.72;101436.13;1565856;90;21104;-90
2023/01/03 08:18:16;;;;;;;19.13;11.27;;;;;;;26.12;51.53;101437.00;1546703;91;21179;-90
2023/01/03 08:20:44;;;;;;;16.52;11.00;;;;;;;26.18;50.05;101425.95;1565681;91;21178;-91
2023/01/03 08:23:11;;;;;;;19.92;11.22;;;;;;;26.26;48.48;101418.09;1565805;91;21100;-90
2023/01/03 08:25:38;;;;;;;20.12;11.78;;;;;;;26.32;47.87;101409.58;1515817;94;21642;-90
2023/01/03 08:28:07;;;;;;;18.95;11.85;;;;;;;26.25;46.52;101412.34;1505016;92;21149;-89
2023/01/03 08:30:38;;;;;;;20.88;12.50;;;;;;;24.68;46.72;101402.71;1527898;92;21255;-89
2023/01/03 08:33:09;;;;;;;24.35;12.55;;;;;;;22.79;46.84;101399.63;1528001;92;22056;-89
2023/01/03 08:35:39;;;;;;;22.52;11.83;;;;;;;21.03;48.19;101403.84;1528049;92;21098;-88
2023/01/03 08:38:09;;;;;;;23.42;12.28;;;;;;;19.76;49.63;101393.08;1528190;92;21129;-90
2023/01/03 08:40:37;;;;;;;30.37;13.03;;;;;;;18.52;51.45;101392.55;1528106;92;21124;-89
2023/01/03 08:43:05;;;;;;;24.98;12.47;;;;;;;17.41;53.65;101398.91;1509272;92;21138;-88
2023/01/03 08:45:32;;;;;;;25.40;12.13;;;;;;;16.54;56.40;101400.85;1556325;89;21131;-89
2023/01/03 08:48:02;;;;;;;24.25;12.40;;;;;;;15.90;58.24;101399.17;1566382;91;21052;-88
2023/01/03 08:50:29;;;;;;;25.68;12.03;;;;;;;15.27;61.60;101395.16;1563922;89;21138;-88
2023/01/03 08:52:57;;;;;;;23.27;11.25;;;;;;;14.63;64.32;101392.34;1570227;89;21067;-89
2023/01/03 08:55:23;;;;;;;27.15;11.48;;;;;;;14.03;69.76;101385.01;1575992;89;21104;-89
2023/01/03 08:57:49;;;;;;;25.20;12.00;;;;;;;13.57;75.09;101383.39;1605125;88;21169;-89
2023/01/03 09:00:16;;;;;;;27.98;12.15;;;;;;;13.13;81.99;101385.72;1628631;88;21091;-90
2023/01/03 09:02:42;;;;;;;27.27;12.75;;;;;;;12.78;90.19;101390.80;1628094;88;21061;-90
2023/01/03 09:05:09;;;;;;;27.85;12.45;;;;;;;12.52;95.86;101379.70;1624757;88;21051;-92
2023/01/03 09:07:35;;;;;;;27.30;11.60;;;;;;;12.22;99.42;101357.19;1628130;88;21054;-90
2023/01/03 09:10:01;;;;;;;31.12;12.25;;;;;;;12.11;100.00;101372.44;1628210;88;21067;-89
2023/01/03 09:12:28;;;;;;;27.52;12.95;;;;;;;11.87;100.00;101371.86;1672729;83;21019;-88
2023/01/03 09:14:54;;;;;;;28.67;12.07;;;;;;;11.74;100.00;101371.66;1733720;81;21451;-90
2023/01/03 09:17:20;;;;;;;28.55;12.35;;;;;;;11.60;100.00;101364.97;1744772;81;21001;-90
2023/01/03 09:19:47;;;;;;;28.65;12.85;;;;;;;11.49;100.00;101358.59;1745021;81;20934;-88
2023/01/03 09:22:13;;;;;;;32.03;12.70;;;;;;;11.40;100.00;101357.91;1745067;81;21075;-90
2023/01/03 09:24:39;;;;;;;28.10;12.30;;;;;;;11.28;100.00;101350.72;1744903;81;21044;-88
2023/01/03 09:27:06;;;;;;;27.85;12.47;;;;;;;11.21;100.00;101339.81;1745314;81;20963;-90
2023/01/03 09:29:32;;;;;;;34.35;14.40;;;;;;;11.11;100.00;101333.70;1744565;81;21049;-89
2023/01/03 09:32:02;;;;;;;31.30;13.35;;;;;;;11.10;100.00;101331.55;1744375;81;20985;-91
2023/01/03 09:34:26;;;;;;;32.85;12.93;;;;;;;11.01;100.00;101334.36;1748303;81;20986;-88
2023/01/03 09:36:53;;;;;;;28.55;13.28;;;;;;;10.94;100.00;101321.55;1744781;81;20982;-90
2023/01/03 09:39:19;;;;;;;33.55;13.20;;;;;;;10.94;100.00;101314.00;1744437;81;21085;-90
2023/01/03 09:43:11;;;;;;;33.45;13.88;;;;;;;10.91;100.00;101310.75;1744531;81;21034;-90
2023/01/03 09:44:14;;;;;;;35.00;14.25;;;;;;;10.89;100.00;101310.17;1740150;81;20982;-90
2023/01/03 09:46:40;;;;;;;33.63;15.18;;;;;;;10.89;100.00;101315.56;1743686;81;21055;-90
2023/01/03 09:49:06;;;;;;;32.35;14.60;;;;;;;10.90;100.00;101309.62;1744695;81;20927;-90
2023/01/03 10:06:46;;;;;;;30.48;13.62;;;;;;;10.86;100.00;101286.39;1744400;81;21424;-89
2023/01/03 10:09:33;;;;;;;34.08;14.00;;;;;;;10.89;100.00;101279.69;1744038;81;20982;-89
2023/01/03 10:12:24;;;;;;;34.85;13.10;;;;;;;10.91;100.00;101273.00;1741623;81;21053;-89
2023/01/03 10:15:18;;;;;;;36.28;13.78;;;;;;;10.85;100.00;101267.74;1745289;81;21186;-89
2023/01/03 10:18:09;;;;;;;33.85;13.40;;;;;;;10.91;100.00;101262.21;1744780;81;20994;-89
2023/01/03 10:21:05;;;;;;;40.28;14.75;;;;;;;10.87;100.00;101259.70;1744779;81;21498;-89
2023/01/03 10:23:33;;;;;;;30.48;13.90;;;;;;;10.88;100.00;101255.96;1718324;82;21042;-90
2023/01/03 10:26:00;;;;;;;37.58;15.72;;;;;;;10.89;100.00;101256.23;1719425;82;21055;-89
2023/01/03 10:28:37;;;;;;;36.35;13.98;;;;;;;10.89;100.00;101251.38;1719441;82;21108;-90
2023/01/03 10:31:36;;;;;;;33.10;13.98;;;;;;;10.87;100.00;101244.06;1717611;82;21078;-90
2023/01/03 10:34:06;;;;;;;40.08;13.98;;;;;;;10.83;100.00;101245.09;1719189;82;21476;-90
2023/01/03 10:36:32;;;;;;;33.20;13.85;;;;;;;10.86;100.00;101249.98;1717911;82;21007;-89
2023/01/03 10:39:09;;;;;;;34.35;14.30;;;;;;;10.91;100.00;101241.14;1717265;82;21089;-89
2023/01/03 10:41:50;;;;;;;30.25;12.98;;;;;;;10.98;100.00;101245.05;1719055;82;21066;-90
2023/01/03 10:44:29;;;;;;;34.65;13.78;;;;;;;11.05;100.00;101240.28;1719369;82;21550;-90
2023/01/03 10:47:00;;;;;;;37.05;14.53;;;;;;;11.04;100.00;101243.52;1718900;82;21019;-89
2023/01/03 10:49:31;;;;;;;35.13;15.05;;;;;;;11.05;100.00;101245.14;1624694;87;21180;-91
2023/01/03 10:52:06;;;;;;;39.38;15.10;;;;;;;11.13;100.00;101245.27;1624439;88;21081;-90
2023/01/03 10:54:51;;;;;;;37.15;15.03;;;;;;;11.21;100.00;101248.91;1574264;89;21232;-90
2023/01/03 10:57:53;;;;;;;34.70;15.83;;;;;;;11.32;100.00;101236.35;1523510;91;21050;-90
2023/01/03 11:00:32;;;;;;;49.08;16.00;;;;;;;11.30;100.00;101228.52;1526227;93;21073;-88
2023/01/03 11:03:13;;;;;;;45.65;16.42;;;;;;;11.37;100.00;101225.09;1525931;93;21114;-91
2023/01/03 11:05:42;;;;;;;48.10;17.05;;;;;;;11.37;100.00;101222.40;1519581;94;21173;-90
2023/01/03 11:08:22;;;;;;;44.88;16.95;;;;;;;11.41;100.00;101225.95;1505321;94;21122;-89
2023/01/03 11:11:00;;;;;;;40.78;16.45;;;;;;;11.46;100.00;101219.28;1523557;92;21461;-89
2023/01/03 11:13:39;;;;;;;38.17;15.75;;;;;;;11.46;100.00;101224.67;1481969;94;21663;-88
2023/01/03 11:16:19;;;;;;;48.75;17.42;;;;;;;11.43;100.00;101225.98;1480762;94;21057;-90
2023/01/03 11:19:01;;;;;;;39.92;16.93;;;;;;;11.44;100.00;101221.40;1501726;94;21123;-90
2023/01/03 11:21:57;;;;;;;36.90;16.37;;;;;;;11.43;100.00;101218.42;1517328;93;21157;-90
2023/01/03 11:24:54;;;;;;;52.60;18.12;;;;;;;11.37;100.00;101222.94;1518216;93;21195;-90
2023/01/03 11:27:50;;;;;;;42.83;17.87;;;;;;;11.24;100.00;101216.56;1511090;93;21733;-89
2023/01/03 11:30:50;;;;;;;47.08;18.15;;;;;;;11.14;100.00;101209.13;1466189;97;21118;-88
2023/01/03 11:33:49;;;;;;;46.10;18.60;;;;;;;11.10;100.00;101216.91;1441925;97;21203;-88
2023/01/03 11:36:24;;;;;;;47.35;18.60;;;;;;;11.08;100.00;101216.86;1456651;96;21218;-89
2023/01/03 11:39:04;;;;;;;41.75;17.25;;;;;;;11.03;100.00;101215.44;1461308;96;21044;-89
2023/01/03 11:42:11;;;;;;;45.90;17.50;;;;;;;11.00;100.00;101208.68;1461113;96;21449;-89
2023/01/03 11:45:25;;;;;;;48.45;18.92;;;;;;;10.97;100.00;101201.59;1440843;98;21165;-90
2023/01/03 11:48:23;;;;;;;55.43;19.98;;;;;;;10.88;100.00;101202.03;1420094;100;21644;-89
2023/01/03 11:51:16;;;;;;;45.58;19.07;;;;;;;10.79;100.00;101208.88;1423720;100;21717;-91
2023/01/03 11:54:14;;;;;;;47.97;20.67;;;;;;;10.74;100.00;101210.16;1421205;99;21228;-90
2023/01/03 11:56:44;;;;;;;50.92;19.00;;;;;;;10.64;100.00;101211.33;1408730;100;21147;-89
2023/01/03 11:59:41;;;;;;;53.45;20.52;;;;;;;10.59;100.00;101212.59;1409449;101;21105;-90
2023/01/03 12:02:44;;;;;;;55.52;21.62;;;;;;;10.54;100.00;101217.92;1409995;101;21121;-89
2023/01/03 12:05:49;;;;;;;55.60;21.70;;;;;;;10.50;100.00;101216.25;1474501;96;21864;-90
2023/01/03 12:08:27;;;;;;;59.08;21.77;;;;;;;10.52;100.00;101211.95;1493562;96;21111;-90
2023/01/03 12:11:14;;;;;;;68.62;24.12;;;;;;;10.44;100.00;101223.43;1514099;92;21509;-91
2023/01/03 12:13:48;;;;;;;52.10;21.50;;;;;;;10.36;100.00;101227.05;1454208;98;21099;-91
2023/01/03 12:16:38;;;;;;;61.85;22.52;;;;;;;10.25;100.00;101231.39;1454206;98;21622;-91
2023/01/03 12:19:32;;;;;;;58.95;24.15;;;;;;;10.15;100.00;101229.87;1422175;99;21909;-89
2023/01/03 12:22:08;;;;;;;63.98;24.30;;;;;;;10.08;100.00;101221.11;1410526;98;21099;-90
2023/01/03 12:24:51;;;;;;;65.57;25.00;;;;;;;10.04;100.00;101224.00;1437625;98;21186;-93
2023/01/03 12:27:21;;;;;;;;;;;;;;;10.01;100.00;101218.56;1490386;94;21227;-92
2023/01/03 12:30:01;;;;;;;65.12;24.10;;;;;;;9.98;100.00;101222.55;1419831;98;20351;-92
2023/01/03 12:32:45;;;;;;;70.50;26.05;;;;;;;9.99;100.00;101217.98;1417366;99;21595;-90
2023/01/03 12:35:28;;;;;;;63.73;24.52;;;;;;;9.99;100.00;101209.37;1417354;101;27043;-91
2023/01/03 12:37:56;;;;;;;;;;;;;;;9.90;100.00;101205.96;1419551;101;21051;-91
2023/01/03 12:40:38;;;;;;;66.57;24.23;;;;;;;9.87;100.00;101206.45;1417280;101;20176;-91
2023/01/03 12:43:12;;;;;;;67.12;24.63;;;;;;;9.84;100.00;101207.73;1417572;101;21265;-92
2023/01/03 12:46:01;;;;;;;68.83;23.10;;;;;;;9.85;100.00;101208.55;1417620;101;21317;-90
2023/01/03 12:49:20;;;;;;;70.42;23.98;;;;;;;9.85;100.00;101208.55;1416622;101;21118;-91
2023/01/03 12:51:46;;;;;;;60.58;22.77;;;;;;;9.79;100.00;101217.05;1474394;95;21600;-91
2023/01/03 12:54:34;;;;;;;69.80;24.45;;;;;;;9.74;100.00;101229.08;1495458;94;21162;-91
2023/01/03 12:57:49;;;;;;;74.80;25.35;;;;;;;9.69;100.00;101232.48;1503364;94;21747;-91
2023/01/03 13:00:42;;;;;;;74.75;26.85;;;;;;;9.69;100.00;101234.36;1503187;95;21366;-91
2023/01/03 13:03:19;;;;;;;66.47;25.12;;;;;;;9.62;100.00;101245.76;1503956;95;21070;-91
2023/01/03 13:05:56;;;;;;;85.40;28.32;;;;;;;9.52;100.00;101249.06;1502749;95;21088;-91
2023/01/03 13:08:36;;;;;;;74.80;26.80;;;;;;;9.53;100.00;101249.38;1502410;95;21076;-90
2023/01/03 13:11:20;;;;;;;73.85;26.00;;;;;;;9.47;100.00;101243.56;1453621;97;21099;-91
2023/01/03 13:13:53;;;;;;;77.82;26.42;;;;;;;9.46;100.00;101236.56;1466886;97;21867;-91
2023/01/03 13:16:44;;;;;;;82.45;29.23;;;;;;;9.43;100.00;101229.77;1467509;97;21095;-89
2023/01/03 13:19:25;;;;;;;71.62;26.62;;;;;;;9.42;100.00;101238.91;1503022;92;21164;-89
2023/01/03 13:22:05;;;;;;;79.12;28.17;;;;;;;9.41;100.00;101239.97;1530326;92;21062;-91
2023/01/03 13:24:44;;;;;;;75.57;26.20;;;;;;;9.42;100.00;101234.88;1530436;92;21650;-89
2023/01/03 13:27:21;;;;;;;76.07;27.10;;;;;;;9.42;100.00;101246.17;1529786;92;21240;-89
2023/01/03 13:29:57;;;;;;;78.35;27.70;;;;;;;9.39;100.00;101243.42;1500011;94;21042;-90
2023/01/03 13:32:27;;;;;;;80.25;29.05;;;;;;;9.39;100.00;101244.77;1503088;92;21157;-91
2023/01/03 13:35:01;;;;;;;76.85;28.10;;;;;;;9.35;100.00;101260.25;1528187;93;21087;-91
2023/01/03 13:37:47;;;;;;;93.10;29.65;;;;;;;9.28;100.00;101257.16;1527972;93;21141;-90
2023/01/03 13:40:21;;;;;;;81.50;27.62;;;;;;;9.26;100.00;101264.63;1510174;95;21208;-90
2023/01/03 13:42:50;;;;;;;74.72;28.40;;;;;;;9.27;100.00;101257.41;1510268;93;22322;-89
2023/01/03 13:45:30;;;;;;;81.47;29.07;;;;;;;9.32;100.00;101257.50;1507818;95;21142;-91
2023/01/03 13:48:16;;;;;;;80.25;28.90;;;;;;;9.32;100.00;101250.77;1525509;92;21581;-91
2023/01/03 13:51:02;;;;;;;76.05;27.58;;;;;;;9.26;100.00;101249.02;1549371;92;21104;-90
2023/01/03 13:53:33;;;;;;;92.12;29.65;;;;;;;9.23;100.00;101242.77;1555814;90;21885;-90
2023/01/03 13:56:16;;;;;;;90.90;29.75;;;;;;;9.20;100.00;101258.03;1537887;92;21066;-90
2023/01/03 13:58:46;;;;;;;86.32;31.00;;;;;;;9.08;100.00;101250.78;1540945;92;21613;-89
2023/01/03 14:01:48;;;;;;;85.30;31.52;;;;;;;9.02;100.00;101243.66;1540790;92;21557;-90
2023/01/03 14:04:34;;;;;;;92.80;29.70;;;;;;;9.00;100.00;101247.62;1537510;90;21080;-93
2023/01/03 14:07:26;;;;;;;84.10;30.50;;;;;;;8.95;100.00;101244.83;1532869;93;21574;-90
2023/01/03 14:10:16;;;;;;;82.80;29.85;;;;;;;8.93;100.00;101251.77;1543972;91;21103;-89
2023/01/03 14:13:29;;;;;;;85.15;30.20;;;;;;;8.90;100.00;101252.77;1561291;91;21056;-88
2023/01/03 14:16:20;;;;;;;86.92;29.05;;;;;;;8.89;100.00;101255.17;1561678;91;21101;-87
2023/01/03 14:18:54;;;;;;;85.77;29.10;;;;;;;8.83;100.00;101260.95;1589308;89;21055;-89
2023/01/03 14:21:29;;;;;;;98.87;29.45;;;;;;;8.73;100.00;101260.15;1544482;92;22024;-89
2023/01/03 14:27:02;;;;;;;;;;;;;;;;;;;;;
2023/01/03 14:29:32;;;;;;;92.82;31.30;;;;;;;8.68;100.00;101272.64;1453467;97;21137;-87
2023/01/03 14:49:40;;;;;;;;;;;;;;;;;;;;;
2023/01/03 14:59:48;;;;;;;62.10;22.40;;;;;;;8.14;100.00;101323.03;1201052;116;21766;-92
2023/01/03 15:02:15;;;;;;;71.07;23.77;;;;;;;8.15;100.00;101324.69;1213080;116;21801;-92
2023/01/03 15:04:54;;;;;;;66.47;23.22;;;;;;;8.13;100.00;101323.27;1213056;116;21222;-92
2023/01/03 15:07:42;;;;;;;61.33;21.77;;;;;;;8.09;100.00;101321.56;1236404;113;21195;-92
2023/01/03 15:10:30;;;;;;;64.55;21.48;;;;;;;8.09;100.00;101323.41;1239977;114;21198;-93
2023/01/03 15:12:57;;;;;;;65.32;22.80;;;;;;;8.05;100.00;101319.54;1243747;112;21332;-92
2023/01/03 15:15:35;;;;;;;55.23;20.30;;;;;;;8.01;100.00;101320.52;1256925;112;21247;-91
2023/01/03 15:18:04;;;;;;;60.52;20.25;;;;;;;8.00;100.00;101316.20;1256877;114;21239;-92
2023/01/03 15:20:38;;;;;;;59.42;21.87;;;;;;;8.01;100.00;101321.05;1256970;114;21219;-91
2023/01/03 15:23:07;;;;;;;70.40;23.47;;;;;;;7.99;100.00;101319.91;1286164;105;21722;-92
2023/01/03 15:25:37;;;;;;;58.42;21.02;;;;;;;7.99;100.00;101315.89;1359839;104;21178;-91
2023/01/03 15:28:27;;;;;;;62.73;21.80;;;;;;;7.98;100.00;101320.97;1370526;99;21056;-91
2023/01/03 15:31:00;;;;;;;61.42;20.85;;;;;;;8.00;100.00;101331.47;1454527;92;21153;-91
2023/01/03 15:33:32;;;;;;;65.52;22.55;;;;;;;7.95;100.00;101330.28;1541817;93;21636;-91
2023/01/03 15:36:11;;;;;;;68.83;22.53;;;;;;;7.95;100.00;101332.16;1541849;93;21217;-90
2023/01/03 15:38:42;;;;;;;65.20;22.30;;;;;;;7.94;100.00;101323.78;1496781;92;21110;-92
2023/01/03 15:44:22;;;;;;;54.05;20.02;;;;;;;7.97;100.00;101330.05;1517191;94;21127;-93
2023/01/03 15:46:49;;;;;;;66.42;21.48;;;;;;;7.94;100.00;101337.20;1500708;95;21132;-91
2023/01/03 15:49:20;;;;;;;61.13;21.00;;;;;;;7.94;100.00;101339.89;1500651;95;21290;-91
2023/01/03 15:51:47;;;;;;;58.17;21.65;;;;;;;7.94;100.00;101342.08;1500681;95;20958;-91
2023/01/03 15:54:16;;;;;;;59.55;21.02;;;;;;;7.93;100.00;101339.60;1500560;92;21168;-91
2023/01/03 15:56:50;;;;;;;62.83;21.50;;;;;;;7.92;100.00;101340.66;1501574;94;21074;-92
2023/01/03 15:59:25;;;;;;;60.85;21.35;;;;;;;7.92;100.00;101344.16;1480380;96;21077;-91
2023/01/03 16:01:52;;;;;;;68.30;22.62;;;;;;;7.94;100.00;101350.62;1478063;96;21130;-91
2023/01/03 16:04:19;;;;;;;52.15;20.45;;;;;;;7.86;100.00;101340.21;1480066;96;21548;-90
2023/01/03 16:06:45;;;;;;;67.12;21.52;;;;;;;7.97;100.00;101351.52;1480072;96;21158;-92
2023/01/03 16:09:12;;;;;;;62.48;21.82;;;;;;;8.00;100.00;101353.78;1480229;96;21107;-91
2023/01/03 16:11:39;;;;;;;66.85;22.55;;;;;;;8.00;100.00;101352.94;1480181;96;21117;-91
2023/01/03 16:14:18;;;;;;;57.17;21.52;;;;;;;8.01;100.00;101347.89;1480087;96;21213;-91
2023/01/03 16:16:49;;;;;;;59.00;21.73;;;;;;;8.00;100.00;101353.78;1453714;97;21131;-90
2023/01/03 20:03:52;;;;;;;71.50;27.22;;;;;;;6.34;100.00;101416.11;1804656;78;26274;-90
2023/01/03 20:06:18;;;;;;;59.67;23.27;;;;;;;6.43;100.00;101425.25;1760647;80;21088;-93
2023/01/03 20:08:45;;;;;;;61.45;23.07;;;;;;;6.55;100.00;101418.20;1732595;81;21124;-91
2023/01/03 20:11:19;;;;;;;53.10;22.60;;;;;;;6.69;100.00;101419.78;1759130;80;20988;-91
2023/01/03 20:13:46;;;;;;;;;;;;;;;6.79;100.00;101425.52;1742050;81;21007;-91
2023/01/03 20:16:13;;;;;;;48.25;20.45;;;;;;;6.86;100.00;101415.28;1742552;80;20177;-89
2023/01/03 20:18:40;;;;;;;54.03;20.00;;;;;;;6.92;100.00;101419.25;1738738;81;21038;-93
2023/01/03 20:21:12;;;;;;;52.70;19.98;;;;;;;6.95;100.00;101415.33;1744053;81;21058;-92
2023/01/03 20:23:48;;;;;;;46.83;19.50;;;;;;;6.96;100.00;101415.09;1740804;81;21063;-86
2023/01/03 20:26:25;;;;;;;47.88;18.80;;;;;;;6.95;100.00;101418.01;1719716;81;21563;-89
2023/01/03 20:28:53;;;;;;;47.93;17.98;;;;;;;6.98;100.00;101411.69;1733210;81;21023;-87
2023/01/03 20:31:22;;;;;;;40.90;17.92;;;;;;;6.99;100.00;101421.89;1746373;81;20995;-89
2023/01/03 20:33:49;;;;;;;47.17;17.60;;;;;;;6.98;100.00;101420.25;1741991;81;21092;-89
2023/01/03 20:36:22;;;;;;;45.12;18.50;;;;;;;7.00;100.00;101420.34;1735802;81;21559;-90
2023/01/03 20:38:52;;;;;;;46.30;18.73;;;;;;;7.00;100.00;101425.70;1743767;81;21015;-89
2023/01/03 20:44:59;;;;;;;46.25;18.07;;;;;;;7.01;100.00;101426.00;1743846;81;20939;-88
2023/01/03 20:47:26;;;;;;;42.35;17.25;;;;;;;7.10;100.00;101429.25;1742875;80;21217;-90
2023/01/03 20:49:52;;;;;;;47.53;18.40;;;;;;;7.12;100.00;101433.03;1749054;82;20994;-90
2023/01/03 20:52:18;;;;;;;42.30;17.67;;;;;;;7.10;100.00;101431.92;1749148;82;21096;-90
2023/01/03 20:54:45;;;;;;;42.83;19.05;;;;;;;7.11;100.00;101430.88;1747293;81;21044;-89
2023/01/03 20:57:14;;;;;;;45.98;18.42;;;;;;;7.11;100.00;101434.08;1715084;81;21645;-89
2023/01/03 20:59:42;;;;;;;43.15;17.15;;;;;;;7.08;100.00;101432.66;1744340;81;21154;-89
2023/01/03 21:02:13;;;;;;;49.95;19.37;;;;;;;7.07;100.00;101437.72;1747916;81;20983;-87
2023/01/03 21:04:39;;;;;;;44.93;17.40;;;;;;;7.08;100.00;101440.69;1746737;81;20964;-89
2023/01/03 21:07:06;;;;;;;40.67;17.40;;;;;;;7.03;100.00;101441.36;1745085;81;21094;-89
2023/01/03 21:09:32;;;;;;;47.15;17.20;;;;;;;7.02;100.00;101444.23;1740455;81;21070;-89
2023/01/03 21:11:58;;;;;;;49.40;17.92;;;;;;;7.02;100.00;101446.39;1741836;81;21278;-89
2023/01/03 21:18:06;;;;;;;42.78;17.20;;;;;;;7.03;100.00;101443.22;1743531;82;21038;-90
2023/01/03 21:20:32;;;;;;;49.58;18.25;;;;;;;7.03;100.00;101441.88;1746340;82;21055;-89
2023/01/03 21:22:59;;;;;;;46.00;17.52;;;;;;;7.00;100.00;101448.98;1742782;81;21070;-87
2023/01/03 21:25:32;;;;;;;49.65;17.67;;;;;;;7.02;100.00;101445.58;1748091;81;21535;-90
2023/01/03 21:28:00;;;;;;;43.08;17.62;;;;;;;7.02;100.00;101446.91;1745649;81;21038;-88
2023/01/03 21:30:29;;;;;;;40.30;16.90;;;;;;;7.03;100.00;101452.08;1746082;81;21054;-94
2023/01/03 21:32:56;;;;;;;38.17;15.55;;;;;;;7.04;100.00;101449.69;1744626;81;21014;-88
2023/01/03 21:35:24;;;;;;;41.73;16.15;;;;;;;7.05;100.00;101449.98;1742424;81;21018;-89
2023/01/03 21:37:52;;;;;;;37.38;16.67;;;;;;;7.04;100.00;101452.89;1739973;81;21099;-93